Time;durP1;ratioP1;P1;durP2;ratioP2;P2;SDS_P1;SDS_P2;PMS_P1;PMS_P2;Temp;Humidity;BMP_temperature;BMP_pressure;BME280_temperature;BME280_humidity;BME280_pressure;Samples;Min_cycle;Max_cycle;Signal;HPM_P1;HPM_P2
2023/04/11 00:00:53;;;;;;;2.07;1.83;;;;;;;;;;5068353;28;20207;-76
2023/04/11 00:03:19;;;;;;;2.47;2.10;;;;;;;;;;5067889;28;20180;-76
2023/04/11 00:05:45;;;;;;;3.07;1.80;;;;;;;;;;5070637;28;20275;-76
2023/04/11 00:08:10;;;;;;;3.13;2.07;;;;;;;;;;5068736;28;20166;-76
2023/04/11 00:10:36;;;;;;;2.57;2.20;;;;;;;;;;5068341;28;20204;-76
2023/04/11 00:13:01;;;;;;;2.07;1.87;;;;;;;;;;5063156;28;20185;-76
2023/04/11 00:15:26;;;;;;;2.60;1.90;;;;;;;;;;5068491;28;20207;-76
2023/04/11 00:17:52;;;;;;;4.23;2.17;;;;;;;;;;5066813;28;20180;-76
2023/04/11 00:20:18;;;;;;;2.70;1.90;;;;;;;;;;5066770;28;20201;-76
2023/04/11 00:22:43;;;;;;;3.43;1.87;;;;;;;;;;5067212;28;20213;-76
2023/04/11 00:25:09;;;;;;;2.03;1.70;;;;;;;;;;5069252;28;20174;-76
2023/04/11 00:27:34;;;;;;;2.97;1.90;;;;;;;;;;5068423;28;20173;-76
2023/04/11 00:29:59;;;;;;;2.10;1.57;;;;;;;;;;5068892;28;20180;-76
2023/04/11 00:32:24;;;;;;;2.37;2.17;;;;;;;;;;5065465;28;20186;-76
2023/04/11 00:34:50;;;;;;;3.60;2.00;;;;;;;;;;5065362;28;20334;-76
2023/04/11 00:37:16;;;;;;;2.27;1.83;;;;;;;;;;5067196;28;20174;-76
2023/04/11 00:39:41;;;;;;;2.37;2.17;;;;;;;;;;5065042;28;20173;-76
2023/04/11 00:42:07;;;;;;;2.27;2.07;;;;;;;;;;5067376;28;20197;-76
2023/04/11 00:44:33;;;;;;;2.67;2.20;;;;;;;;;;5068573;28;20315;-76
2023/04/11 00:46:59;;;;;;;2.67;2.00;;;;;;;;;;5066079;28;20177;-76
2023/04/11 00:49:24;;;;;;;2.87;2.10;;;;;;;;;;5067127;28;20181;-76
2023/04/11 00:51:50;;;;;;;2.77;2.20;;;;;;;;;;5066282;28;20208;-76
2023/04/11 00:54:15;;;;;;;4.20;2.00;;;;;;;;;;5065078;28;20247;-76
2023/04/11 00:56:41;;;;;;;2.47;2.10;;;;;;;;;;5068038;28;20177;-76
2023/04/11 00:59:06;;;;;;;2.30;2.10;;;;;;;;;;5068987;28;20207;-76
2023/04/11 01:01:34;;;;;;;6.50;3.17;;;;;;;;;;5067665;28;20205;-76
2023/04/11 01:04:00;;;;;;;2.60;1.90;;;;;;;;;;5071004;28;20185;-76
2023/04/11 01:06:26;;;;;;;3.20;2.13;;;;;;;;;;5070791;28;20219;-76
2023/04/11 01:08:51;;;;;;;2.10;1.90;;;;;;;;;;5070645;28;20173;-75
2023/04/11 01:11:19;;;;;;;3.60;2.10;;;;;;;;;;5071883;28;20188;-76
2023/04/11 01:13:44;;;;;;;6.10;2.03;;;;;;;;;;5065555;28;20176;-75
2023/04/11 01:16:09;;;;;;;2.40;1.93;;;;;;;;;;5070307;28;20188;-75
2023/04/11 01:18:35;;;;;;;2.20;2.00;;;;;;;;;;5071903;28;20195;-75
2023/04/11 01:21:00;;;;;;;2.10;1.90;;;;;;;;;;5062379;28;20350;-75
2023/04/11 01:23:26;;;;;;;3.87;1.90;;;;;;;;;;5070143;28;20195;-75
2023/04/11 01:25:51;;;;;;;2.23;2.03;;;;;;;;;;5070332;28;20177;-75
2023/04/11 01:28:17;;;;;;;2.03;1.93;;;;;;;;;;5071072;28;20267;-75
2023/04/11 01:30:42;;;;;;;2.13;2.00;;;;;;;;;;5071581;28;20265;-75
2023/04/11 01:33:09;;;;;;;2.00;1.80;;;;;;;;;;5068700;28;20204;-75
2023/04/11 01:35:34;;;;;;;2.40;1.93;;;;;;;;;;5067947;28;20187;-75
2023/04/11 01:38:00;;;;;;;1.83;1.40;;;;;;;;;;5070654;28;20185;-75
2023/04/11 01:40:26;;;;;;;1.33;1.23;;;;;;;;;;5068024;28;20208;-74
2023/04/11 01:42:52;;;;;;;1.17;1.07;;;;;;;;;;5070220;28;20176;-74
2023/04/11 01:45:19;;;;;;;3.03;0.60;;;;;;;;;;5070832;28;20179;-75
2023/04/11 01:47:44;;;;;;;1.13;0.90;;;;;;;;;;5068271;28;20185;-75
2023/04/11 01:50:10;;;;;;;0.93;0.93;;;;;;;;;;5067170;28;20182;-75
2023/04/11 01:52:36;;;;;;;1.23;0.70;;;;;;;;;;5070703;28;20204;-75
2023/04/11 01:55:01;;;;;;;1.27;0.80;;;;;;;;;;5070959;28;20216;-75
2023/04/11 01:57:26;;;;;;;0.63;0.63;;;;;;;;;;5069857;28;20190;-75
2023/04/11 01:59:51;;;;;;;0.63;0.53;;;;;;;;;;5069607;28;20182;-75
2023/04/11 02:02:17;;;;;;;0.90;0.80;;;;;;;;;;5087114;28;20215;-74
2023/04/11 02:04:42;;;;;;;1.00;0.80;;;;;;;;;;5069795;28;20177;-74
2023/04/11 02:07:07;;;;;;;1.10;1.03;;;;;;;;;;5070199;28;20219;-75
2023/04/11 02:09:32;;;;;;;1.10;1.00;;;;;;;;;;5071234;28;20180;-74
2023/04/11 02:11:58;;;;;;;1.40;0.90;;;;;;;;;;5070397;28;20185;-75
2023/04/11 02:14:24;;;;;;;1.77;1.20;;;;;;;;;;5070188;28;20173;-74
2023/04/11 02:16:50;;;;;;;1.57;0.77;;;;;;;;;;5069956;28;20328;-75
2023/04/11 02:19:15;;;;;;;1.63;1.00;;;;;;;;;;5069743;28;20180;-75
2023/04/11 02:21:40;;;;;;;2.87;1.20;;;;;;;;;;5069940;28;20192;-75
2023/04/11 02:24:05;;;;;;;0.97;0.90;;;;;;;;;;5069063;28;20171;-75
2023/04/11 02:26:31;;;;;;;2.90;1.20;;;;;;;;;;5065515;28;20172;-75
2023/04/11 02:28:56;;;;;;;1.30;1.17;;;;;;;;;;5064868;28;20386;-75
2023/04/11 02:31:21;;;;;;;1.80;0.80;;;;;;;;;;5069860;28;20211;-75
2023/04/11 02:33:46;;;;;;;0.80;0.80;;;;;;;;;;5062974;28;20183;-74
2023/04/11 02:36:11;;;;;;;1.40;0.90;;;;;;;;;;5071999;28;20257;-74
2023/04/11 02:38:37;;;;;;;1.33;1.10;;;;;;;;;;5068410;28;20261;-74
2023/04/11 02:41:02;;;;;;;0.80;0.80;;;;;;;;;;5068943;28;20206;-74
2023/04/11 02:43:28;;;;;;;1.70;0.70;;;;;;;;;;5070326;28;20175;-75
2023/04/11 02:45:53;;;;;;;1.57;0.70;;;;;;;;;;5068997;28;20182;-75
2023/04/11 02:48:18;;;;;;;2.30;0.90;;;;;;;;;;5070573;28;20178;-75
2023/04/11 02:50:43;;;;;;;2.37;0.90;;;;;;;;;;5066308;28;20188;-74
2023/04/11 02:53:08;;;;;;;1.10;0.87;;;;;;;;;;5073607;28;20244;-75
2023/04/11 02:55:34;;;;;;;1.60;0.70;;;;;;;;;;5068375;28;20226;-75
2023/04/11 02:57:59;;;;;;;0.87;0.87;;;;;;;;;;5070736;28;20178;-75
2023/04/11 03:00:25;;;;;;;0.63;0.63;;;;;;;;;;5067177;28;20173;-75
2023/04/11 03:02:50;;;;;;;1.00;0.80;;;;;;;;;;5069632;28;20186;-74
2023/04/11 03:05:15;;;;;;;0.90;0.80;;;;;;;;;;5069084;28;20198;-75
2023/04/11 03:07:40;;;;;;;0.60;0.60;;;;;;;;;;5068970;28;20177;-74
2023/04/11 03:10:06;;;;;;;2.10;0.70;;;;;;;;;;5067777;28;20190;-75
2023/04/11 03:12:31;;;;;;;2.23;1.00;;;;;;;;;;5069428;28;20177;-74
2023/04/11 03:14:56;;;;;;;1.60;1.20;;;;;;;;;;5068735;28;20181;-74
2023/04/11 03:17:22;;;;;;;1.23;1.00;;;;;;;;;;5070301;28;20228;-75
2023/04/11 03:19:47;;;;;;;1.70;0.73;;;;;;;;;;5066546;28;20225;-74
2023/04/11 03:22:12;;;;;;;0.67;0.67;;;;;;;;;;5069114;28;20202;-75
2023/04/11 03:24:40;;;;;;;1.03;0.60;;;;;;;;;;5068882;28;20174;-75
2023/04/11 03:27:05;;;;;;;0.83;0.83;;;;;;;;;;5082455;28;20186;-75
2023/04/11 03:29:31;;;;;;;0.93;0.80;;;;;;;;;;5069596;28;20169;-75
2023/04/11 03:31:56;;;;;;;1.77;0.90;;;;;;;;;;5067058;28;20301;-75
2023/04/11 03:34:22;;;;;;;1.47;1.00;;;;;;;;;;5070990;28;20166;-74
2023/04/11 03:36:47;;;;;;;2.03;1.20;;;;;;;;;;5068228;28;20216;-74
2023/04/11 03:39:12;;;;;;;1.57;1.43;;;;;;;;;;5068749;28;20240;-74
2023/04/11 03:41:38;;;;;;;1.10;0.90;;;;;;;;;;5067985;28;20220;-74
2023/04/11 03:44:03;;;;;;;1.20;1.10;;;;;;;;;;5065793;28;20205;-75
2023/04/11 03:46:28;;;;;;;0.57;0.57;;;;;;;;;;5069139;28;20193;-74
2023/04/11 03:48:54;;;;;;;1.87;1.13;;;;;;;;;;5068519;28;20175;-75
2023/04/11 03:51:19;;;;;;;0.60;0.50;;;;;;;;;;5069614;28;20183;-74
2023/04/11 03:53:44;;;;;;;1.00;0.83;;;;;;;;;;5068314;28;20248;-74
2023/04/11 03:56:10;;;;;;;0.50;0.50;;;;;;;;;;5069487;28;20177;-75
2023/04/11 03:58:35;;;;;;;0.57;0.43;;;;;;;;;;5069780;28;20192;-75
2023/04/11 04:01:01;;;;;;;0.30;0.30;;;;;;;;;;5065204;28;20203;-74
2023/04/11 04:03:26;;;;;;;0.33;0.33;;;;;;;;;;5068327;28;20178;-75
2023/04/11 04:05:52;;;;;;;1.70;0.73;;;;;;;;;;5067690;28;20170;-74
2023/04/11 04:08:17;;;;;;;2.20;0.70;;;;;;;;;;5067683;28;20209;-74
2023/04/11 04:10:42;;;;;;;0.80;0.60;;;;;;;;;;5076923;28;20191;-75
2023/04/11 04:13:07;;;;;;;0.80;0.80;;;;;;;;;;5065931;28;20184;-75
2023/04/11 04:15:32;;;;;;;0.60;0.57;;;;;;;;;;5070810;28;20166;-74
2023/04/11 04:17:58;;;;;;;0.43;0.40;;;;;;;;;;5067257;28;20181;-75
2023/04/11 04:20:23;;;;;;;0.40;0.40;;;;;;;;;;5063988;28;20182;-75
2023/04/11 04:22:48;;;;;;;0.37;0.37;;;;;;;;;;5069003;28;20210;-75
2023/04/11 04:25:14;;;;;;;0.90;0.90;;;;;;;;;;5069864;28;20235;-74
2023/04/11 04:27:43;;;;;;;0.93;0.70;;;;;;;;;;5067155;28;20182;-74
2023/04/11 04:30:09;;;;;;;0.63;0.63;;;;;;;;;;5067052;28;20269;-74
2023/04/11 04:32:34;;;;;;;1.30;0.80;;;;;;;;;;5070865;28;20185;-74
2023/04/11 04:35:00;;;;;;;0.70;0.70;;;;;;;;;;5069035;28;20178;-74
2023/04/11 04:37:26;;;;;;;0.63;0.63;;;;;;;;;;5069192;28;20173;-74
2023/04/11 04:39:56;;;;;;;1.13;0.80;;;;;;;;;;5072184;28;20201;-74
2023/04/11 04:42:22;;;;;;;0.50;0.50;;;;;;;;;;5068339;28;20240;-74
2023/04/11 04:44:47;;;;;;;0.80;0.80;;;;;;;;;;5070709;28;20170;-75
2023/04/11 04:47:13;;;;;;;0.93;0.93;;;;;;;;;;5070464;28;20185;-74
2023/04/11 04:49:38;;;;;;;0.97;0.60;;;;;;;;;;5071886;28;20180;-74
2023/04/11 04:52:03;;;;;;;2.03;0.83;;;;;;;;;;5070373;28;20201;-74
2023/04/11 04:54:30;;;;;;;3.30;1.20;;;;;;;;;;5063917;28;20318;-74
2023/04/11 04:56:55;;;;;;;1.00;0.90;;;;;;;;;;5072508;28;20176;-74
2023/04/11 04:59:20;;;;;;;2.30;0.80;;;;;;;;;;5069845;28;20330;-74
2023/04/11 05:01:45;;;;;;;1.10;0.90;;;;;;;;;;5067668;28;20194;-74
2023/04/11 05:04:11;;;;;;;0.93;0.80;;;;;;;;;;5072618;28;20173;-74
2023/04/11 05:06:36;;;;;;;2.30;1.17;;;;;;;;;;5071452;28;20169;-74
2023/04/11 05:09:01;;;;;;;1.80;1.00;;;;;;;;;;5071410;28;20186;-74
2023/04/11 05:11:27;;;;;;;1.63;0.97;;;;;;;;;;5070572;28;20233;-75
2023/04/11 05:13:53;;;;;;;1.20;0.80;;;;;;;;;;5070086;28;20185;-74
2023/04/11 05:16:18;;;;;;;2.00;1.27;;;;;;;;;;5069994;28;20256;-74
2023/04/11 05:18:44;;;;;;;1.07;1.03;;;;;;;;;;5067921;28;20182;-74
2023/04/11 05:21:09;;;;;;;1.00;0.90;;;;;;;;;;5066869;28;20194;-74
2023/04/11 05:23:34;;;;;;;3.70;2.40;;;;;;;;;;5072638;28;20169;-74
2023/04/11 05:26:00;;;;;;;2.60;1.63;;;;;;;;;;5071216;28;20238;-75
2023/04/11 05:28:25;;;;;;;3.40;2.30;;;;;;;;;;5070421;28;20186;-74
2023/04/11 05:30:50;;;;;;;5.93;3.00;;;;;;;;;;5066905;28;20187;-74
2023/04/11 05:33:15;;;;;;;4.40;2.90;;;;;;;;;;5065637;28;20178;-74
2023/04/11 05:35:41;;;;;;;5.57;1.80;;;;;;;;;;5069985;28;20194;-74
2023/04/11 05:38:06;;;;;;;2.50;1.87;;;;;;;;;;5067875;28;20192;-75
2023/04/11 05:40:31;;;;;;;2.00;1.00;;;;;;;;;;5065753;28;20173;-74
2023/04/11 05:42:56;;;;;;;1.20;1.10;;;;;;;;;;5078087;28;20210;-75
2023/04/11 05:45:22;;;;;;;1.53;1.20;;;;;;;;;;5066506;28;20173;-74
2023/04/11 05:47:47;;;;;;;3.50;1.97;;;;;;;;;;5068363;28;20267;-74
2023/04/11 05:50:13;;;;;;;3.20;1.27;;;;;;;;;;5065703;28;20180;-75
2023/04/11 05:52:38;;;;;;;2.10;1.63;;;;;;;;;;5072811;28;20205;-74
2023/04/11 05:55:04;;;;;;;2.40;1.30;;;;;;;;;;5067483;28;20229;-74
2023/04/11 05:57:30;;;;;;;1.47;1.33;;;;;;;;;;5068541;28;20212;-74
2023/04/11 05:59:55;;;;;;;2.63;1.30;;;;;;;;;;5068361;28;20177;-74
2023/04/11 06:02:20;;;;;;;3.13;1.47;;;;;;;;;;5072593;28;20200;-74
2023/04/11 06:04:45;;;;;;;2.30;1.83;;;;;;;;;;5069726;28;20182;-74
2023/04/11 06:07:11;;;;;;;3.60;1.50;;;;;;;;;;5069854;28;20268;-74
2023/04/11 06:09:38;;;;;;;3.83;2.70;;;;;;;;;;5070348;28;20174;-75
2023/04/11 06:12:03;;;;;;;4.57;2.20;;;;;;;;;;5072371;28;20185;-74
2023/04/11 06:14:28;;;;;;;2.00;1.80;;;;;;;;;;5070162;28;20178;-75
2023/04/11 06:16:53;;;;;;;2.07;1.87;;;;;;;;;;5067068;28;20189;-75
2023/04/11 06:19:18;;;;;;;2.47;1.50;;;;;;;;;;5072176;28;20204;-75
2023/04/11 06:21:44;;;;;;;4.57;1.43;;;;;;;;;;5066389;28;20208;-74
2023/04/11 06:24:09;;;;;;;2.13;1.20;;;;;;;;;;5063741;28;20190;-74
2023/04/11 06:26:35;;;;;;;6.17;2.93;;;;;;;;;;5067494;28;20227;-74
2023/04/11 06:29:02;;;;;;;2.23;2.03;;;;;;;;;;5067825;28;20177;-75
2023/04/11 06:31:28;;;;;;;3.57;1.90;;;;;;;;;;5069096;28;20174;-75
2023/04/11 06:33:53;;;;;;;3.47;1.90;;;;;;;;;;5067507;28;20177;-75
2023/04/11 06:36:18;;;;;;;3.67;1.80;;;;;;;;;;5071830;28;20181;-74
2023/04/11 06:38:43;;;;;;;2.40;1.43;;;;;;;;;;5068850;28;20173;-74
2023/04/11 06:41:08;;;;;;;3.23;1.60;;;;;;;;;;5069893;28;20204;-75
2023/04/11 06:43:34;;;;;;;3.57;1.47;;;;;;;;;;5066721;28;20184;-75
2023/04/11 06:45:59;;;;;;;5.37;2.00;;;;;;;;;;5068049;28;20305;-74
2023/04/11 06:48:24;;;;;;;5.13;2.30;;;;;;;;;;5066984;28;20178;-74
2023/04/11 06:50:49;;;;;;;4.27;1.77;;;;;;;;;;5069658;28;20186;-75
2023/04/11 06:53:15;;;;;;;6.07;1.90;;;;;;;;;;5073967;28;20195;-75
2023/04/11 06:55:40;;;;;;;3.20;2.43;;;;;;;;;;5075816;28;20224;-75
2023/04/11 06:58:06;;;;;;;7.83;2.90;;;;;;;;;;5072168;28;20181;-75
2023/04/11 07:00:31;;;;;;;3.87;1.60;;;;;;;;;;5067627;28;20177;-75
2023/04/11 07:02:56;;;;;;;5.43;2.00;;;;;;;;;;5067384;28;20211;-75
2023/04/11 07:05:21;;;;;;;3.57;1.93;;;;;;;;;;5070600;28;20177;-77
2023/04/11 07:07:46;;;;;;;2.03;1.77;;;;;;;;;;5066058;28;20174;-78
2023/04/11 07:10:12;;;;;;;4.93;1.90;;;;;;;;;;5068381;28;20182;-78
2023/04/11 07:12:37;;;;;;;7.23;2.37;;;;;;;;;;5069827;28;20181;-77
2023/04/11 07:15:03;;;;;;;9.00;2.60;;;;;;;;;;5069894;28;20178;-77
2023/04/11 07:17:28;;;;;;;4.37;2.63;;;;;;;;;;5069759;28;20181;-78
2023/04/11 07:19:53;;;;;;;3.23;1.90;;;;;;;;;;5068810;28;20211;-78
2023/04/11 07:22:19;;;;;;;2.93;2.20;;;;;;;;;;5067684;28;20221;-78
2023/04/11 07:24:45;;;;;;;5.27;2.23;;;;;;;;;;5073605;28;20196;-77
2023/04/11 07:27:12;;;;;;;4.00;2.43;;;;;;;;;;5063410;28;20185;-77
2023/04/11 07:29:38;;;;;;;10.13;4.10;;;;;;;;;;5073923;28;20178;-77
2023/04/11 07:32:03;;;;;;;11.20;4.30;;;;;;;;;;5071308;28;20185;-78
2023/04/11 07:34:28;;;;;;;2.87;1.83;;;;;;;;;;5071073;28;20206;-77
2023/04/11 07:36:59;;;;;;;4.67;2.43;;;;;;;;;;5066971;28;20261;-78
2023/04/11 07:39:25;;;;;;;4.60;2.27;;;;;;;;;;5063397;28;20259;-77
2023/04/11 07:41:51;;;;;;;1.83;1.63;;;;;;;;;;5069800;28;20182;-77
2023/04/11 07:44:16;;;;;;;6.00;2.00;;;;;;;;;;5065253;28;20179;-77
2023/04/11 07:46:42;;;;;;;3.43;1.90;;;;;;;;;;5069828;28;20269;-77
2023/04/11 07:49:07;;;;;;;2.40;1.63;;;;;;;;;;5070264;28;20204;-78
2023/04/11 07:51:32;;;;;;;8.23;2.27;;;;;;;;;;5069578;28;20190;-78
2023/04/11 07:53:57;;;;;;;4.57;2.00;;;;;;;;;;5070026;28;20231;-77
2023/04/11 07:56:22;;;;;;;5.20;2.50;;;;;;;;;;5071292;28;20173;-77
2023/04/11 07:58:47;;;;;;;3.57;2.00;;;;;;;;;;5069186;28;20183;-77
2023/04/11 08:01:23;;;;;;;4.07;2.03;;;;;;;;;;5063833;28;20244;-77
2023/04/11 08:03:49;;;;;;;7.40;2.40;;;;;;;;;;5062680;28;20209;-78
2023/04/11 08:06:14;;;;;;;5.23;1.70;;;;;;;;;;5065363;28;20174;-77
2023/04/11 08:08:39;;;;;;;3.73;1.63;;;;;;;;;;5066363;28;20178;-78
2023/04/11 08:11:07;;;;;;;6.23;2.23;;;;;;;;;;5067739;28;20182;-78
2023/04/11 08:13:32;;;;;;;3.23;1.70;;;;;;;;;;5060786;28;20178;-77
2023/04/11 08:15:57;;;;;;;4.97;1.90;;;;;;;;;;5059888;28;20231;-78
2023/04/11 08:18:23;;;;;;;4.63;1.47;;;;;;;;;;5065764;28;20185;-78
2023/04/11 08:20:48;;;;;;;5.63;1.63;;;;;;;;;;5067838;28;20269;-78
2023/04/11 08:23:14;;;;;;;4.17;2.07;;;;;;;;;;5068271;28;20219;-78
2023/04/11 08:25:39;;;;;;;4.83;1.90;;;;;;;;;;5066792;28;20295;-78
2023/04/11 08:28:04;;;;;;;3.03;1.70;;;;;;;;;;5068514;28;20174;-78
2023/04/11 08:30:30;;;;;;;6.93;2.17;;;;;;;;;;5067169;28;20177;-78
2023/04/11 08:32:55;;;;;;;4.77;1.77;;;;;;;;;;5068936;28;20170;-78
2023/04/11 08:35:20;;;;;;;6.10;2.20;;;;;;;;;;5064284;28;20181;-78
2023/04/11 08:37:45;;;;;;;5.27;2.73;;;;;;;;;;5069585;28;20169;-78
2023/04/11 08:40:11;;;;;;;4.93;1.93;;;;;;;;;;5061566;28;20177;-78
2023/04/11 08:42:36;;;;;;;3.07;1.97;;;;;;;;;;5061302;28;20194;-78
2023/04/11 08:45:03;;;;;;;4.83;1.83;;;;;;;;;;5066330;28;20188;-78
2023/04/11 08:47:29;;;;;;;3.33;1.93;;;;;;;;;;5068527;28;20202;-78
2023/04/11 08:49:55;;;;;;;3.40;2.33;;;;;;;;;;5063200;28;20186;-78
2023/04/11 08:52:20;;;;;;;5.60;2.00;;;;;;;;;;5070688;28;20210;-78
2023/04/11 08:54:46;;;;;;;2.13;1.70;;;;;;;;;;5067337;28;20213;-78
2023/04/11 08:57:41;;;;;;;4.33;2.00;;;;;;;;;;5066175;28;20271;-78
2023/04/11 09:00:12;;;;;;;2.57;1.97;;;;;;;;;;5043409;28;20193;-78
2023/04/11 09:03:00;;;;;;;5.13;2.07;;;;;;;;;;5063354;28;20225;-78
2023/04/11 09:05:27;;;;;;;3.63;1.97;;;;;;;;;;5060023;28;20204;-78
2023/04/11 09:07:53;;;;;;;5.37;2.03;;;;;;;;;;5066471;28;20260;-78
2023/04/11 09:10:19;;;;;;;2.40;1.73;;;;;;;;;;5067637;28;20248;-78
2023/04/11 09:12:44;;;;;;;3.63;1.83;;;;;;;;;;5066726;28;20406;-78
2023/04/11 09:15:17;;;;;;;3.67;2.90;;;;;;;;;;5063128;28;20248;-78
2023/04/11 09:17:42;;;;;;;3.77;1.77;;;;;;;;;;5068814;28;20200;-78
2023/04/11 09:20:17;;;;;;;5.77;1.90;;;;;;;;;;5066797;28;20174;-78
2023/04/11 09:22:42;;;;;;;6.23;2.17;;;;;;;;;;5066748;28;20208;-78
2023/04/11 09:25:07;;;;;;;7.23;2.37;;;;;;;;;;5069687;28;20169;-78
2023/04/11 09:27:32;;;;;;;5.17;2.17;;;;;;;;;;5071747;28;20175;-78
2023/04/11 09:29:58;;;;;;;4.53;1.60;;;;;;;;;;5068291;28;20187;-78
2023/04/11 09:32:33;;;;;;;3.43;1.80;;;;;;;;;;5067784;28;20170;-78
2023/04/11 09:35:15;;;;;;;3.70;2.00;;;;;;;;;;5067171;28;20220;-78
2023/04/11 09:37:44;;;;;;;4.13;1.73;;;;;;;;;;5070059;28;20178;-78
2023/04/11 09:40:10;;;;;;;2.83;1.63;;;;;;;;;;5069656;28;20231;-78
2023/04/11 09:42:35;;;;;;;6.27;1.77;;;;;;;;;;5066473;28;20227;-78
2023/04/11 09:45:01;;;;;;;4.50;1.67;;;;;;;;;;5069679;28;20172;-78
2023/04/11 09:47:31;;;;;;;6.70;2.30;;;;;;;;;;5068944;28;20178;-78
2023/04/11 09:49:57;;;;;;;3.67;1.50;;;;;;;;;;5070251;28;20174;-78
2023/04/11 09:52:23;;;;;;;4.53;2.40;;;;;;;;;;5067958;28;20206;-78
2023/04/11 09:54:49;;;;;;;4.17;2.00;;;;;;;;;;5069451;28;20252;-78
2023/04/11 09:57:15;;;;;;;4.20;2.10;;;;;;;;;;5069959;28;20201;-78
2023/04/11 09:59:40;;;;;;;4.10;2.20;;;;;;;;;;5074232;28;20182;-78
2023/04/11 10:02:06;;;;;;;4.23;2.20;;;;;;;;;;5070498;28;20209;-78
2023/04/11 10:04:33;;;;;;;5.30;2.83;;;;;;;;;;5068074;28;20178;-78
2023/04/11 10:07:11;;;;;;;4.13;1.80;;;;;;;;;;5061216;28;20345;-78
2023/04/11 10:09:38;;;;;;;3.37;3.00;;;;;;;;;;5065588;28;20169;-78
2023/04/11 10:12:03;;;;;;;2.77;1.90;;;;;;;;;;5071181;28;20170;-78
2023/04/11 10:14:38;;;;;;;6.47;2.40;;;;;;;;;;5066250;28;20178;-78
2023/04/11 10:17:09;;;;;;;3.37;1.80;;;;;;;;;;5067875;28;20170;-78
2023/04/11 10:19:34;;;;;;;4.27;1.97;;;;;;;;;;5068424;28;20200;-78
2023/04/11 10:22:00;;;;;;;4.03;2.30;;;;;;;;;;5069048;28;20278;-78
2023/04/11 10:24:25;;;;;;;4.10;2.40;;;;;;;;;;5067124;28;20183;-79
2023/04/11 10:26:51;;;;;;;4.37;2.10;;;;;;;;;;5067397;28;20190;-78
2023/04/11 10:29:40;;;;;;;5.33;1.93;;;;;;;;;;5071287;28;20222;-78
2023/04/11 10:32:24;;;;;;;5.07;1.70;;;;;;;;;;5067980;28;20182;-78
2023/04/11 10:34:49;;;;;;;3.90;2.30;;;;;;;;;;5069085;28;20182;-79
2023/04/11 10:37:29;;;;;;;7.63;2.60;;;;;;;;;;5069007;28;20204;-78
2023/04/11 10:39:59;;;;;;;3.87;1.77;;;;;;;;;;5067634;28;20246;-78
2023/04/11 10:42:35;;;;;;;3.80;1.90;;;;;;;;;;5070288;28;20238;-78
2023/04/11 10:45:16;;;;;;;4.30;2.07;;;;;;;;;;5068323;28;20233;-78
2023/04/11 10:47:41;;;;;;;4.43;2.00;;;;;;;;;;5062949;28;20184;-78
2023/04/11 10:50:22;;;;;;;5.70;2.60;;;;;;;;;;5066327;28;20222;-78
2023/04/11 10:52:47;;;;;;;6.23;2.53;;;;;;;;;;5070821;28;20225;-78
2023/04/11 10:55:13;;;;;;;2.80;1.83;;;;;;;;;;5072045;28;20233;-78
2023/04/11 10:57:58;;;;;;;3.83;2.10;;;;;;;;;;5064395;28;20189;-78
2023/04/11 11:00:24;;;;;;;5.23;1.77;;;;;;;;;;5069800;28;20183;-78
2023/04/11 11:02:49;;;;;;;4.40;1.70;;;;;;;;;;5069768;28;20224;-78
2023/04/11 11:05:15;;;;;;;3.23;2.07;;;;;;;;;;5069236;28;20183;-78
2023/04/11 11:07:44;;;;;;;4.77;2.40;;;;;;;;;;5067432;28;20217;-78
2023/04/11 11:10:09;;;;;;;4.33;2.27;;;;;;;;;;5069180;28;20198;-78
2023/04/11 11:12:35;;;;;;;5.80;2.40;;;;;;;;;;5067808;28;20218;-77
2023/04/11 11:15:11;;;;;;;3.27;1.73;;;;;;;;;;5067011;28;20205;-78
2023/04/11 11:17:36;;;;;;;4.33;2.27;;;;;;;;;;5065191;28;20180;-79
2023/04/11 11:20:06;;;;;;;5.13;2.13;;;;;;;;;;5064543;28;20186;-78
2023/04/11 11:22:31;;;;;;;5.20;1.97;;;;;;;;;;5066099;28;20207;-78
2023/04/11 11:25:05;;;;;;;4.57;2.00;;;;;;;;;;5068511;28;20186;-79
2023/04/11 11:27:34;;;;;;;3.23;1.87;;;;;;;;;;5066919;28;20175;-79
2023/04/11 11:30:09;;;;;;;3.60;2.00;;;;;;;;;;5065622;28;20172;-78
2023/04/11 11:32:34;;;;;;;4.03;1.60;;;;;;;;;;5067488;28;20175;-78
2023/04/11 11:35:11;;;;;;;6.23;2.00;;;;;;;;;;5066334;28;20183;-78
2023/04/11 11:37:36;;;;;;;3.77;1.77;;;;;;;;;;5068595;28;20179;-78
2023/04/11 11:40:04;;;;;;;5.33;2.03;;;;;;;;;;5067028;28;20187;-78
2023/04/11 11:42:30;;;;;;;3.20;2.07;;;;;;;;;;5066106;28;20292;-78
2023/04/11 11:45:12;;;;;;;6.77;2.50;;;;;;;;;;5067125;28;20215;-79
2023/04/11 11:47:44;;;;;;;4.03;2.67;;;;;;;;;;5058809;28;20253;-78
2023/04/11 11:50:10;;;;;;;3.37;2.20;;;;;;;;;;5065535;28;20214;-78
2023/04/11 11:52:36;;;;;;;5.73;2.30;;;;;;;;;;5068779;28;20191;-78
2023/04/11 11:55:27;;;;;;;4.27;2.23;;;;;;;;;;5064533;28;20234;-78
2023/04/11 11:57:53;;;;;;;4.43;2.03;;;;;;;;;;5066115;28;20191;-78
2023/04/11 12:00:25;;;;;;;4.37;2.40;;;;;;;;;;5069865;28;20175;-78
2023/04/11 12:02:51;;;;;;;5.87;1.90;;;;;;;;;;5064316;28;20215;-78
2023/04/11 12:05:17;;;;;;;5.03;2.13;;;;;;;;;;5067893;28;20179;-78
2023/04/11 12:07:42;;;;;;;3.80;1.63;;;;;;;;;;5063097;28;20267;-78
2023/04/11 12:10:10;;;;;;;5.60;1.97;;;;;;;;;;5069222;28;20178;-78
2023/04/11 12:12:36;;;;;;;2.17;1.60;;;;;;;;;;5068422;28;20172;-78
2023/04/11 12:15:23;;;;;;;4.83;1.70;;;;;;;;;;5069423;28;20184;-78
2023/04/11 12:17:51;;;;;;;5.13;2.73;;;;;;;;;;5078787;28;20187;-78
2023/04/11 12:20:23;;;;;;;5.13;2.23;;;;;;;;;;5068572;28;20185;-78
2023/04/11 12:22:49;;;;;;;3.00;2.00;;;;;;;;;;5068294;28;20208;-78
2023/04/11 12:25:14;;;;;;;4.20;1.90;;;;;;;;;;5063130;28;20253;-78
2023/04/11 12:27:41;;;;;;;5.70;2.17;;;;;;;;;;5065770;28;20266;-78
2023/04/11 12:30:07;;;;;;;4.83;2.00;;;;;;;;;;5066472;28;20310;-78
2023/04/11 12:32:32;;;;;;;3.30;2.23;;;;;;;;;;5066536;28;20204;-78
2023/04/11 12:34:58;;;;;;;3.70;1.90;;;;;;;;;;5067984;28;20248;-79
2023/04/11 12:37:23;;;;;;;4.60;1.80;;;;;;;;;;5062944;28;20211;-78
2023/04/11 12:39:48;;;;;;;5.53;2.37;;;;;;;;;;5068744;28;20183;-78
2023/04/11 12:42:14;;;;;;;5.60;2.23;;;;;;;;;;5067966;28;20231;-78
2023/04/11 12:44:40;;;;;;;2.80;1.83;;;;;;;;;;5067532;28;20264;-79
2023/04/11 12:47:05;;;;;;;3.73;2.00;;;;;;;;;;5058586;28;20263;-78
2023/04/11 12:49:30;;;;;;;3.20;2.10;;;;;;;;;;5067035;28;20188;-78
2023/04/11 12:51:55;;;;;;;3.83;2.00;;;;;;;;;;5073139;28;20284;-78
2023/04/11 13:12:03;;;;;;;2.37;1.70;;;;;;;;;;5104373;27;20557;-79
2023/04/11 13:14:29;;;;;;;3.70;1.70;;;;;;;;;;5106100;28;20184;-79
2023/04/11 13:16:54;;;;;;;4.57;2.27;;;;;;;;;;5082541;28;20177;-79
2023/04/11 13:19:20;;;;;;;3.27;2.27;;;;;;;;;;5081199;28;20181;-80
2023/04/11 13:21:45;;;;;;;6.10;1.97;;;;;;;;;;5079767;28;20178;-78
2023/04/11 13:24:10;;;;;;;5.00;1.77;;;;;;;;;;5080109;28;20252;-79
2023/04/11 13:26:37;;;;;;;2.30;1.57;;;;;;;;;;5081610;28;20185;-80
2023/04/11 13:29:02;;;;;;;3.00;1.83;;;;;;;;;;5100162;28;20192;-80
2023/04/11 13:31:27;;;;;;;3.53;2.07;;;;;;;;;;5098010;28;20196;-79
2023/04/11 13:33:52;;;;;;;3.27;2.00;;;;;;;;;;5082533;28;20208;-79
2023/04/11 13:36:18;;;;;;;4.63;2.90;;;;;;;;;;5087975;28;20202;-80
2023/04/11 13:38:44;;;;;;;5.73;2.60;;;;;;;;;;5086656;28;20173;-79
2023/04/11 13:41:09;;;;;;;5.27;2.67;;;;;;;;;;5086659;28;20184;-79
2023/04/11 13:43:35;;;;;;;4.90;1.57;;;;;;;;;;5082192;28;20229;-80
2023/04/11 13:46:00;;;;;;;5.27;2.00;;;;;;;;;;5082171;28;20184;-79
2023/04/11 13:48:25;;;;;;;2.73;1.87;;;;;;;;;;5079604;28;20275;-79
2023/04/11 13:50:50;;;;;;;3.67;1.90;;;;;;;;;;5080923;28;20211;-80
2023/04/11 13:53:16;;;;;;;4.70;2.10;;;;;;;;;;5076880;28;20183;-79
2023/04/11 13:55:41;;;;;;;4.00;2.10;;;;;;;;;;5083923;28;20173;-79
2023/04/11 13:58:06;;;;;;;2.93;1.70;;;;;;;;;;5076886;28;20182;-79
2023/04/11 14:00:34;;;;;;;3.03;2.10;;;;;;;;;;5106734;28;20191;-79
2023/04/11 14:03:00;;;;;;;5.20;2.13;;;;;;;;;;5079599;28;20204;-80
2023/04/11 14:05:25;;;;;;;5.33;2.20;;;;;;;;;;5088271;28;20181;-79
2023/04/11 14:07:51;;;;;;;7.07;1.87;;;;;;;;;;5078500;28;20264;-80
2023/04/11 14:10:16;;;;;;;3.83;1.93;;;;;;;;;;5089570;28;20217;-79
2023/04/11 14:12:41;;;;;;;2.97;1.90;;;;;;;;;;5081100;28;20234;-79
2023/04/11 14:15:07;;;;;;;4.27;2.30;;;;;;;;;;5085652;28;20176;-79
2023/04/11 14:17:32;;;;;;;4.60;2.70;;;;;;;;;;5084686;28;20184;-80
2023/04/11 14:19:57;;;;;;;8.37;2.33;;;;;;;;;;5081371;28;20178;-79
2023/04/11 14:22:26;;;;;;;4.33;2.70;;;;;;;;;;5070654;28;20182;-79
2023/04/11 14:24:51;;;;;;;3.73;1.87;;;;;;;;;;5061632;28;20175;-79
2023/04/11 14:27:16;;;;;;;4.20;2.50;;;;;;;;;;5071291;28;20176;-80
2023/04/11 14:29:41;;;;;;;5.80;2.97;;;;;;;;;;5061932;28;20240;-79
2023/04/11 14:32:07;;;;;;;5.90;2.20;;;;;;;;;;5084082;28;20179;-79
2023/04/11 14:34:32;;;;;;;5.97;2.70;;;;;;;;;;5062598;28;20224;-80
2023/04/11 14:36:57;;;;;;;3.83;3.40;;;;;;;;;;5068334;28;20201;-79
2023/04/11 14:39:22;;;;;;;3.97;1.97;;;;;;;;;;5081039;28;20212;-79
2023/04/11 14:41:48;;;;;;;3.07;1.80;;;;;;;;;;5072430;28;20178;-77
2023/04/11 14:44:15;;;;;;;4.80;1.80;;;;;;;;;;5070904;28;20184;-77
2023/04/11 14:46:40;;;;;;;1.87;1.60;;;;;;;;;;5066071;28;20207;-77
2023/04/11 14:49:06;;;;;;;2.53;1.47;;;;;;;;;;5068169;28;20181;-77
2023/04/11 14:51:31;;;;;;;3.60;2.03;;;;;;;;;;5066241;28;20201;-79
2023/04/11 14:53:58;;;;;;;2.20;1.60;;;;;;;;;;5062720;28;20224;-79
2023/04/11 14:56:24;;;;;;;4.47;2.23;;;;;;;;;;5064609;28;20184;-79